CDT,Max TemperatureF,Mean TemperatureF,Min TemperatureF,Max Dew PointF,MeanDew PointF,Min DewpointF,Max Humidity, Mean Humidity, Min Humidity, Max Sea Level PressureIn, Mean Sea Level PressureIn, Min Sea Level PressureIn, Max VisibilityMiles, Mean VisibilityMiles, Min VisibilityMiles, Max Wind SpeedMPH, Mean Wind SpeedMPH, Max Gust SpeedMPH,PrecipitationIn, CloudCover, Events, WindDirDegrees
2013-6-1,83,74,65,72,66,63,100,83,61,30.01,29.95,29.85,10,10,2,16,7,24,0.13,4,Rain-Thunderstorm,208
2013-6-2,77,68,60,68,63,58,100,83,55,29.96,29.93,29.89,10,10,10,8,4,,0.03,6,Rain,272
2013-6-3,76,66,57,62,57,54,100,73,45,30.05,30.00,29.96,10,9,4,8,2,,0.00,3,,358
2013-6-4,80,67,54,60,56,53,100,68,42,30.09,30.04,29.99,10,10,10,9,2,,0.00,2,,67
2013-6-5,80,70,61,70,64,58,100,77,56,30.02,29.95,29.87,10,10,3,8,1,,0.03,3,Rain,181
2013-6-6,76,70,64,71,67,64,100,90,70,29.86,29.82,29.77,10,9,3,12,3,16,0.26,5,Rain-Thunderstorm,216
2013-6-7,81,72,63,68,63,58,100,76,47,29.88,29.81,29.77,10,6,0,7,1,,0.00,5,Fog,12
2013-6-8,81,72,62,68,61,55,100,68,41,30.04,29.96,29.86,10,6,0,10,3,,0.00,5,Fog,228
2013-6-9,78,69,60,71,65,60,100,90,67,30.08,30.00,29.90,10,9,4,14,2,16,0.20,5,Rain-Thunderstorm,159
2013-6-10,79,71,63,70,65,63,100,85,61,29.96,29.90,29.84,10,9,2,14,5,20,0.87,6,Rain-Thunderstorm,243
2013-6-11,87,74,60,68,64,61,100,68,44,30.03,29.98,29.96,10,8,2,8,2,,0.00,0,,236
2013-6-12,91,82,73,75,70,67,100,69,48,30.04,29.96,29.87,10,10,10,15,5,22,0.00,0,,233
2013-6-13,83,76,68,71,66,53,76,65,50,29.97,29.86,29.78,10,10,7,20,12,31,0.00,4,Thunderstorm,286
2013-6-14,82,68,54,63,55,50,100,64,33,30.06,30.02,29.95,10,10,10,7,2,,0.00,0,,16
2013-6-15,85,72,59,64,60,56,100,68,39,30.12,30.07,30.01,10,10,5,10,1,,0.00,0,,206
2013-6-16,86,75,64,72,67,62,100,75,55,30.09,30.03,29.98,10,10,7,12,2,17,0.00,2,Rain,221
2013-6-17,88,77,66,71,68,63,100,78,50,30.01,29.97,29.90,10,9,4,13,2,26,0.00,3,Rain,228
2013-6-18,84,74,64,68,64,59,100,79,45,29.98,29.93,29.87,10,9,2,7,2,17,0.34,5,Rain,33
2013-6-19,85,74,63,67,63,59,100,71,43,30.11,30.04,29.96,10,10,7,8,2,,0.00,1,,64
2013-6-20,89,76,64,67,64,60,100,73,37,30.18,30.15,30.11,10,10,5,13,1,17,0.00,2,Rain-Thunderstorm,105
2013-6-21,88,75,62,71,66,62,100,75,46,30.23,30.19,30.13,10,10,5,10,2,,0.01,2,Rain,205
2013-6-22,88,77,66,68,66,64,100,66,45,30.23,30.16,30.09,10,9,5,9,2,,0.00,1,,209
2013-6-23,87,76,66,68,65,63,100,68,44,30.18,30.13,30.08,10,10,10,12,2,9,0.00,1,,220
2013-6-24,86,78,69,73,69,67,100,86,54,30.21,30.13,30.10,10,9,1,12,2,24,0.57,1,Rain-Thunderstorm,224
2013-6-25,89,78,67,73,70,68,100,77,55,30.12,30.05,29.96,10,9,5,12,3,20,0.00,1,Thunderstorm,211
2013-6-26,88,78,67,73,70,65,100,75,53,30.01,29.93,29.80,10,9,1,16,4,23,1.54,3,Rain-Thunderstorm,223
2013-6-27,90,79,68,74,71,68,100,81,48,29.87,29.84,29.81,10,10,4,9,4,18,0.00,4,Thunderstorm,270
2013-6-28,86,78,70,72,67,60,100,76,40,29.82,29.75,29.67,10,10,7,10,2,21,0.00,3,Rain,275
2013-6-29,85,74,63,68,63,59,100,70,41,29.71,29.67,29.63,10,10,10,14,3,18,0.00,3,,262
2013-6-30,80,71,62,64,62,59,100,76,48,29.81,29.76,29.69,10,9,2,7,2,,0.00,5,,297